sensor_id;sensor_type;location;lat;lon;timestamp;P1;durP1;ratioP1;P2;durP2;ratioP2
64894;SDS011;51588;53.702;10.208;2022-07-26T00:02:05;4.03;;;2.77;;
64894;SDS011;51588;53.702;10.208;2022-07-26T00:04:32;3.00;;;2.47;;
64894;SDS011;51588;53.702;10.208;2022-07-26T00:06:58;2.83;;;2.10;;
64894;SDS011;51588;53.702;10.208;2022-07-26T00:09:25;3.83;;;2.47;;
64894;SDS011;51588;53.702;10.208;2022-07-26T00:11:52;3.40;;;2.67;;
64894;SDS011;51588;53.702;10.208;2022-07-26T00:14:19;4.50;;;2.70;;
64894;SDS011;51588;53.702;10.208;2022-07-26T00:16:45;2.50;;;2.30;;
64894;SDS011;51588;53.702;10.208;2022-07-26T00:19:11;3.43;;;2.40;;
64894;SDS011;51588;53.702;10.208;2022-07-26T00:21:38;4.57;;;2.80;;
64894;SDS011;51588;53.702;10.208;2022-07-26T00:24:05;3.30;;;2.50;;
64894;SDS011;51588;53.702;10.208;2022-07-26T00:26:31;2.63;;;2.17;;
64894;SDS011;51588;53.702;10.208;2022-07-26T00:28:59;3.10;;;2.60;;
64894;SDS011;51588;53.702;10.208;2022-07-26T00:31:28;2.60;;;2.33;;
64894;SDS011;51588;53.702;10.208;2022-07-26T00:33:54;2.80;;;2.40;;
64894;SDS011;51588;53.702;10.208;2022-07-26T00:36:21;4.20;;;2.43;;
64894;SDS011;51588;53.702;10.208;2022-07-26T00:38:47;3.43;;;2.50;;
64894;SDS011;51588;53.702;10.208;2022-07-26T00:41:13;2.73;;;2.50;;
64894;SDS011;51588;53.702;10.208;2022-07-26T00:43:51;2.90;;;2.57;;
64894;SDS011;51588;53.702;10.208;2022-07-26T00:46:19;2.83;;;2.53;;
64894;SDS011;51588;53.702;10.208;2022-07-26T00:48:45;2.63;;;2.30;;
64894;SDS011;51588;53.702;10.208;2022-07-26T00:51:12;3.93;;;2.43;;
64894;SDS011;51588;53.702;10.208;2022-07-26T00:53:38;2.77;;;2.43;;
64894;SDS011;51588;53.702;10.208;2022-07-26T00:56:05;4.00;;;2.67;;
64894;SDS011;51588;53.702;10.208;2022-07-26T00:58:31;3.10;;;2.50;;
64894;SDS011;51588;53.702;10.208;2022-07-26T01:00:57;2.90;;;2.37;;
64894;SDS011;51588;53.702;10.208;2022-07-26T01:03:25;4.40;;;3.00;;
64894;SDS011;51588;53.702;10.208;2022-07-26T01:05:51;3.93;;;2.43;;
64894;SDS011;51588;53.702;10.208;2022-07-26T01:08:18;3.80;;;2.80;;
64894;SDS011;51588;53.702;10.208;2022-07-26T01:10:45;4.43;;;3.00;;
64894;SDS011;51588;53.702;10.208;2022-07-26T01:13:11;3.07;;;2.63;;
64894;SDS011;51588;53.702;10.208;2022-07-26T01:15:40;2.70;;;2.40;;
64894;SDS011;51588;53.702;10.208;2022-07-26T01:18:06;3.63;;;2.40;;
64894;SDS011;51588;53.702;10.208;2022-07-26T01:20:34;2.80;;;2.47;;
64894;SDS011;51588;53.702;10.208;2022-07-26T01:23:01;3.23;;;2.63;;
64894;SDS011;51588;53.702;10.208;2022-07-26T01:25:28;3.70;;;2.47;;
64894;SDS011;51588;53.702;10.208;2022-07-26T01:27:55;2.67;;;2.40;;
64894;SDS011;51588;53.702;10.208;2022-07-26T01:30:21;2.20;;;2.00;;
64894;SDS011;51588;53.702;10.208;2022-07-26T01:32:47;4.07;;;2.87;;
64894;SDS011;51588;53.702;10.208;2022-07-26T01:35:14;3.17;;;2.40;;
64894;SDS011;51588;53.702;10.208;2022-07-26T01:37:40;2.53;;;2.27;;
64894;SDS011;51588;53.702;10.208;2022-07-26T01:40:09;5.20;;;2.43;;
64894;SDS011;51588;53.702;10.208;2022-07-26T01:42:35;2.40;;;2.20;;
64894;SDS011;51588;53.702;10.208;2022-07-26T01:45:05;2.00;;;1.80;;
64894;SDS011;51588;53.702;10.208;2022-07-26T01:47:31;3.70;;;2.60;;
64894;SDS011;51588;53.702;10.208;2022-07-26T01:49:58;4.03;;;2.17;;
64894;SDS011;51588;53.702;10.208;2022-07-26T01:52:25;3.47;;;2.10;;
64894;SDS011;51588;53.702;10.208;2022-07-26T01:54:51;4.10;;;2.43;;
64894;SDS011;51588;53.702;10.208;2022-07-26T01:57:19;4.50;;;2.30;;
64894;SDS011;51588;53.702;10.208;2022-07-26T01:59:45;4.63;;;2.40;;
64894;SDS011;51588;53.702;10.208;2022-07-26T02:02:12;3.27;;;2.30;;
64894;SDS011;51588;53.702;10.208;2022-07-26T02:04:38;2.90;;;2.20;;
64894;SDS011;51588;53.702;10.208;2022-07-26T02:07:22;2.47;;;1.80;;
64894;SDS011;51588;53.702;10.208;2022-07-26T02:09:48;2.83;;;2.30;;
64894;SDS011;51588;53.702;10.208;2022-07-26T02:12:15;3.83;;;2.40;;
64894;SDS011;51588;53.702;10.208;2022-07-26T02:14:42;3.30;;;2.50;;
64894;SDS011;51588;53.702;10.208;2022-07-26T02:17:09;3.10;;;2.23;;
64894;SDS011;51588;53.702;10.208;2022-07-26T02:19:35;4.27;;;2.17;;
64894;SDS011;51588;53.702;10.208;2022-07-26T02:22:02;2.40;;;2.20;;
64894;SDS011;51588;53.702;10.208;2022-07-26T02:24:28;3.27;;;1.90;;
64894;SDS011;51588;53.702;10.208;2022-07-26T02:26:55;3.00;;;2.23;;
64894;SDS011;51588;53.702;10.208;2022-07-26T02:29:21;2.90;;;2.03;;
64894;SDS011;51588;53.702;10.208;2022-07-26T02:31:49;4.03;;;2.67;;
64894;SDS011;51588;53.702;10.208;2022-07-26T02:34:15;2.87;;;2.27;;
64894;SDS011;51588;53.702;10.208;2022-07-26T02:36:41;3.27;;;2.50;;
64894;SDS011;51588;53.702;10.208;2022-07-26T02:39:08;3.30;;;2.13;;
64894;SDS011;51588;53.702;10.208;2022-07-26T02:41:34;3.57;;;2.60;;
64894;SDS011;51588;53.702;10.208;2022-07-26T02:44:01;3.17;;;2.33;;
64894;SDS011;51588;53.702;10.208;2022-07-26T02:46:27;2.57;;;2.10;;
64894;SDS011;51588;53.702;10.208;2022-07-26T02:48:55;2.40;;;2.20;;
64894;SDS011;51588;53.702;10.208;2022-07-26T02:51:21;2.30;;;2.00;;
64894;SDS011;51588;53.702;10.208;2022-07-26T02:53:47;2.60;;;1.93;;
64894;SDS011;51588;53.702;10.208;2022-07-26T02:56:14;3.57;;;2.43;;
64894;SDS011;51588;53.702;10.208;2022-07-26T02:58:40;2.27;;;2.07;;
64894;SDS011;51588;53.702;10.208;2022-07-26T03:01:06;3.17;;;2.30;;
64894;SDS011;51588;53.702;10.208;2022-07-26T03:03:33;4.00;;;2.40;;
64894;SDS011;51588;53.702;10.208;2022-07-26T03:06:00;2.20;;;2.00;;
64894;SDS011;51588;53.702;10.208;2022-07-26T03:08:27;4.03;;;2.23;;
64894;SDS011;51588;53.702;10.208;2022-07-26T03:10:53;2.50;;;2.17;;
64894;SDS011;51588;53.702;10.208;2022-07-26T03:13:19;4.63;;;2.37;;
64894;SDS011;51588;53.702;10.208;2022-07-26T03:15:46;3.03;;;1.93;;
64894;SDS011;51588;53.702;10.208;2022-07-26T03:18:12;3.37;;;2.20;;
64894;SDS011;51588;53.702;10.208;2022-07-26T03:20:38;3.80;;;2.00;;
64894;SDS011;51588;53.702;10.208;2022-07-26T03:23:06;3.23;;;2.13;;
64894;SDS011;51588;53.702;10.208;2022-07-26T03:25:32;4.90;;;2.70;;
64894;SDS011;51588;53.702;10.208;2022-07-26T03:27:59;3.10;;;2.10;;
64894;SDS011;51588;53.702;10.208;2022-07-26T03:30:25;2.80;;;2.10;;
64894;SDS011;51588;53.702;10.208;2022-07-26T03:32:51;2.50;;;2.30;;
64894;SDS011;51588;53.702;10.208;2022-07-26T03:35:18;2.77;;;2.17;;
64894;SDS011;51588;53.702;10.208;2022-07-26T03:37:44;3.63;;;2.13;;
64894;SDS011;51588;53.702;10.208;2022-07-26T03:40:12;2.90;;;1.90;;
64894;SDS011;51588;53.702;10.208;2022-07-26T03:42:38;3.33;;;2.03;;
64894;SDS011;51588;53.702;10.208;2022-07-26T03:45:05;5.37;;;2.47;;
64894;SDS011;51588;53.702;10.208;2022-07-26T03:47:32;3.10;;;1.80;;
64894;SDS011;51588;53.702;10.208;2022-07-26T03:49:58;2.83;;;2.30;;
64894;SDS011;51588;53.702;10.208;2022-07-26T03:52:24;3.73;;;2.03;;
64894;SDS011;51588;53.702;10.208;2022-07-26T03:54:51;2.70;;;2.13;;
64894;SDS011;51588;53.702;10.208;2022-07-26T03:57:18;2.63;;;1.90;;
64894;SDS011;51588;53.702;10.208;2022-07-26T03:59:44;2.63;;;2.20;;
64894;SDS011;51588;53.702;10.208;2022-07-26T04:02:10;2.03;;;1.80;;
64894;SDS011;51588;53.702;10.208;2022-07-26T04:04:36;3.13;;;2.20;;
64894;SDS011;51588;53.702;10.208;2022-07-26T04:07:03;3.10;;;2.13;;
64894;SDS011;51588;53.702;10.208;2022-07-26T04:09:29;3.27;;;2.00;;
64894;SDS011;51588;53.702;10.208;2022-07-26T04:11:55;2.70;;;2.00;;
64894;SDS011;51588;53.702;10.208;2022-07-26T04:14:23;3.67;;;2.30;;
64894;SDS011;51588;53.702;10.208;2022-07-26T04:16:49;3.30;;;2.10;;
64894;SDS011;51588;53.702;10.208;2022-07-26T04:19:16;3.10;;;2.10;;
64894;SDS011;51588;53.702;10.208;2022-07-26T04:21:42;2.23;;;1.93;;
64894;SDS011;51588;53.702;10.208;2022-07-26T04:24:09;3.60;;;2.00;;
64894;SDS011;51588;53.702;10.208;2022-07-26T04:26:35;2.47;;;2.00;;
64894;SDS011;51588;53.702;10.208;2022-07-26T04:29:02;2.77;;;2.30;;
64894;SDS011;51588;53.702;10.208;2022-07-26T04:31:29;2.00;;;1.80;;
64894;SDS011;51588;53.702;10.208;2022-07-26T04:33:56;4.37;;;2.20;;
64894;SDS011;51588;53.702;10.208;2022-07-26T04:36:22;3.37;;;2.03;;
64894;SDS011;51588;53.702;10.208;2022-07-26T04:38:48;2.43;;;1.93;;
64894;SDS011;51588;53.702;10.208;2022-07-26T04:41:15;2.83;;;2.40;;
64894;SDS011;51588;53.702;10.208;2022-07-26T04:43:41;3.67;;;2.40;;
64894;SDS011;51588;53.702;10.208;2022-07-26T04:46:08;2.90;;;2.10;;
64894;SDS011;51588;53.702;10.208;2022-07-26T04:48:36;2.17;;;1.83;;
64894;SDS011;51588;53.702;10.208;2022-07-26T04:51:03;2.70;;;1.80;;
64894;SDS011;51588;53.702;10.208;2022-07-26T04:53:30;3.57;;;1.90;;
64894;SDS011;51588;53.702;10.208;2022-07-26T04:55:56;3.73;;;1.97;;
64894;SDS011;51588;53.702;10.208;2022-07-26T04:58:22;3.67;;;1.97;;
64894;SDS011;51588;53.702;10.208;2022-07-26T05:00:49;3.20;;;2.33;;
64894;SDS011;51588;53.702;10.208;2022-07-26T05:03:15;2.63;;;2.10;;
64894;SDS011;51588;53.702;10.208;2022-07-26T05:05:43;3.57;;;2.17;;
64894;SDS011;51588;53.702;10.208;2022-07-26T05:08:09;1.93;;;1.70;;
64894;SDS011;51588;53.702;10.208;2022-07-26T05:10:36;2.30;;;1.70;;
64894;SDS011;51588;53.702;10.208;2022-07-26T05:13:03;3.13;;;2.10;;
64894;SDS011;51588;53.702;10.208;2022-07-26T05:15:30;2.70;;;1.80;;
64894;SDS011;51588;53.702;10.208;2022-07-26T05:18:00;1.67;;;1.57;;
64894;SDS011;51588;53.702;10.208;2022-07-26T05:20:26;1.70;;;1.60;;
64894;SDS011;51588;53.702;10.208;2022-07-26T05:22:54;2.30;;;1.67;;
64894;SDS011;51588;53.702;10.208;2022-07-26T05:25:20;1.80;;;1.70;;
64894;SDS011;51588;53.702;10.208;2022-07-26T05:27:46;3.00;;;1.90;;
64894;SDS011;51588;53.702;10.208;2022-07-26T05:30:13;2.23;;;1.80;;
64894;SDS011;51588;53.702;10.208;2022-07-26T05:32:39;1.87;;;1.73;;
64894;SDS011;51588;53.702;10.208;2022-07-26T05:35:06;2.97;;;1.97;;
64894;SDS011;51588;53.702;10.208;2022-07-26T05:37:33;2.00;;;1.70;;
64894;SDS011;51588;53.702;10.208;2022-07-26T05:40:00;2.60;;;1.87;;
64894;SDS011;51588;53.702;10.208;2022-07-26T05:42:27;3.00;;;1.87;;
64894;SDS011;51588;53.702;10.208;2022-07-26T05:44:53;1.80;;;1.70;;
64894;SDS011;51588;53.702;10.208;2022-07-26T05:47:20;2.10;;;1.60;;
64894;SDS011;51588;53.702;10.208;2022-07-26T05:49:46;2.07;;;1.87;;
64894;SDS011;51588;53.702;10.208;2022-07-26T05:52:12;2.70;;;1.97;;
64894;SDS011;51588;53.702;10.208;2022-07-26T05:54:39;2.43;;;2.10;;
64894;SDS011;51588;53.702;10.208;2022-07-26T05:57:06;2.20;;;1.90;;
64894;SDS011;51588;53.702;10.208;2022-07-26T05:59:33;2.30;;;1.90;;
64894;SDS011;51588;53.702;10.208;2022-07-26T06:01:59;2.90;;;1.83;;
64894;SDS011;51588;53.702;10.208;2022-07-26T06:04:25;1.93;;;1.83;;
64894;SDS011;51588;53.702;10.208;2022-07-26T06:06:52;2.40;;;1.83;;
64894;SDS011;51588;53.702;10.208;2022-07-26T06:09:18;1.90;;;1.80;;
64894;SDS011;51588;53.702;10.208;2022-07-26T06:11:45;2.00;;;1.70;;
64894;SDS011;51588;53.702;10.208;2022-07-26T06:14:12;2.00;;;1.80;;
64894;SDS011;51588;53.702;10.208;2022-07-26T06:16:39;2.30;;;1.93;;
64894;SDS011;51588;53.702;10.208;2022-07-26T06:19:05;2.30;;;2.10;;
64894;SDS011;51588;53.702;10.208;2022-07-26T06:21:31;2.27;;;2.07;;
64894;SDS011;51588;53.702;10.208;2022-07-26T06:23:58;3.20;;;1.93;;
64894;SDS011;51588;53.702;10.208;2022-07-26T06:26:24;3.87;;;2.23;;
64894;SDS011;51588;53.702;10.208;2022-07-26T06:28:50;2.23;;;2.00;;
64894;SDS011;51588;53.702;10.208;2022-07-26T06:31:18;3.57;;;2.20;;
64894;SDS011;51588;53.702;10.208;2022-07-26T06:33:44;2.23;;;2.03;;
64894;SDS011;51588;53.702;10.208;2022-07-26T06:36:11;2.90;;;1.73;;
64894;SDS011;51588;53.702;10.208;2022-07-26T06:38:37;2.40;;;1.90;;
64894;SDS011;51588;53.702;10.208;2022-07-26T06:41:03;2.90;;;1.90;;
64894;SDS011;51588;53.702;10.208;2022-07-26T06:43:30;3.00;;;1.97;;
64894;SDS011;51588;53.702;10.208;2022-07-26T06:45:56;3.53;;;2.10;;
64894;SDS011;51588;53.702;10.208;2022-07-26T06:48:24;2.17;;;1.80;;
64894;SDS011;51588;53.702;10.208;2022-07-26T06:50:50;3.53;;;2.00;;
64894;SDS011;51588;53.702;10.208;2022-07-26T06:53:17;2.20;;;1.67;;
64894;SDS011;51588;53.702;10.208;2022-07-26T06:55:43;2.10;;;1.73;;
64894;SDS011;51588;53.702;10.208;2022-07-26T06:58:09;2.17;;;1.67;;
64894;SDS011;51588;53.702;10.208;2022-07-26T07:00:36;2.27;;;1.90;;
64894;SDS011;51588;53.702;10.208;2022-07-26T07:03:02;3.00;;;1.93;;
64894;SDS011;51588;53.702;10.208;2022-07-26T07:05:30;3.27;;;1.80;;
64894;SDS011;51588;53.702;10.208;2022-07-26T07:07:56;2.40;;;1.83;;
64894;SDS011;51588;53.702;10.208;2022-07-26T07:10:22;1.70;;;1.60;;
64894;SDS011;51588;53.702;10.208;2022-07-26T07:12:49;2.00;;;1.70;;
64894;SDS011;51588;53.702;10.208;2022-07-26T07:15:15;2.23;;;1.70;;
64894;SDS011;51588;53.702;10.208;2022-07-26T07:17:41;2.70;;;1.63;;
64894;SDS011;51588;53.702;10.208;2022-07-26T07:20:08;1.67;;;1.53;;
64894;SDS011;51588;53.702;10.208;2022-07-26T07:22:36;1.63;;;1.23;;
64894;SDS011;51588;53.702;10.208;2022-07-26T07:25:03;2.27;;;1.67;;
64894;SDS011;51588;53.702;10.208;2022-07-26T07:27:29;1.40;;;1.30;;
64894;SDS011;51588;53.702;10.208;2022-07-26T07:29:55;2.80;;;1.57;;
64894;SDS011;51588;53.702;10.208;2022-07-26T07:32:22;3.90;;;1.60;;
64894;SDS011;51588;53.702;10.208;2022-07-26T07:34:48;2.10;;;1.53;;
64894;SDS011;51588;53.702;10.208;2022-07-26T07:37:14;1.77;;;1.50;;
64894;SDS011;51588;53.702;10.208;2022-07-26T07:39:42;2.50;;;1.47;;
64894;SDS011;51588;53.702;10.208;2022-07-26T07:42:09;2.30;;;1.60;;
64894;SDS011;51588;53.702;10.208;2022-07-26T07:44:35;1.60;;;1.30;;
64894;SDS011;51588;53.702;10.208;2022-07-26T07:47:01;1.20;;;1.07;;
64894;SDS011;51588;53.702;10.208;2022-07-26T07:49:28;1.80;;;1.20;;
64894;SDS011;51588;53.702;10.208;2022-07-26T07:51:54;2.00;;;1.63;;
64894;SDS011;51588;53.702;10.208;2022-07-26T07:54:21;1.57;;;1.30;;
64894;SDS011;51588;53.702;10.208;2022-07-26T07:56:48;1.40;;;1.30;;
64894;SDS011;51588;53.702;10.208;2022-07-26T07:59:15;1.73;;;1.50;;
64894;SDS011;51588;53.702;10.208;2022-07-26T08:01:41;1.30;;;1.20;;
64894;SDS011;51588;53.702;10.208;2022-07-26T08:04:08;3.20;;;1.53;;
64894;SDS011;51588;53.702;10.208;2022-07-26T08:06:34;3.00;;;1.93;;
64894;SDS011;51588;53.702;10.208;2022-07-26T08:09:01;1.30;;;1.17;;
64894;SDS011;51588;53.702;10.208;2022-07-26T08:11:27;1.90;;;1.40;;
64894;SDS011;51588;53.702;10.208;2022-07-26T08:13:55;1.70;;;1.53;;
64894;SDS011;51588;53.702;10.208;2022-07-26T08:16:21;2.57;;;1.50;;
64894;SDS011;51588;53.702;10.208;2022-07-26T08:18:47;1.47;;;1.20;;
64894;SDS011;51588;53.702;10.208;2022-07-26T08:21:14;1.63;;;1.40;;
64894;SDS011;51588;53.702;10.208;2022-07-26T08:23:40;1.80;;;1.40;;
64894;SDS011;51588;53.702;10.208;2022-07-26T08:26:06;1.43;;;1.33;;
64894;SDS011;51588;53.702;10.208;2022-07-26T08:28:33;1.63;;;1.20;;
64894;SDS011;51588;53.702;10.208;2022-07-26T08:31:01;1.63;;;1.23;;
64894;SDS011;51588;53.702;10.208;2022-07-26T08:33:27;2.37;;;1.53;;
64894;SDS011;51588;53.702;10.208;2022-07-26T08:35:54;1.40;;;1.10;;
64894;SDS011;51588;53.702;10.208;2022-07-26T08:38:20;1.43;;;1.10;;
64894;SDS011;51588;53.702;10.208;2022-07-26T08:40:46;1.93;;;1.30;;
64894;SDS011;51588;53.702;10.208;2022-07-26T08:43:13;2.47;;;1.40;;
64894;SDS011;51588;53.702;10.208;2022-07-26T08:45:39;2.13;;;1.20;;
64894;SDS011;51588;53.702;10.208;2022-07-26T08:48:07;2.70;;;1.53;;
64894;SDS011;51588;53.702;10.208;2022-07-26T08:50:33;1.90;;;1.30;;
64894;SDS011;51588;53.702;10.208;2022-07-26T08:53:00;2.00;;;1.20;;
64894;SDS011;51588;53.702;10.208;2022-07-26T08:55:28;1.87;;;1.20;;
64894;SDS011;51588;53.702;10.208;2022-07-26T08:57:54;1.30;;;1.20;;
64894;SDS011;51588;53.702;10.208;2022-07-26T09:00:22;2.70;;;1.40;;
64894;SDS011;51588;53.702;10.208;2022-07-26T09:02:49;1.57;;;1.10;;
64894;SDS011;51588;53.702;10.208;2022-07-26T09:05:18;2.50;;;1.27;;
64894;SDS011;51588;53.702;10.208;2022-07-26T09:07:45;1.83;;;1.40;;
64894;SDS011;51588;53.702;10.208;2022-07-26T09:10:12;1.50;;;1.30;;
64894;SDS011;51588;53.702;10.208;2022-07-26T09:12:38;1.87;;;1.30;;
64894;SDS011;51588;53.702;10.208;2022-07-26T09:15:06;2.03;;;1.10;;
64894;SDS011;51588;53.702;10.208;2022-07-26T09:17:36;2.10;;;1.20;;
64894;SDS011;51588;53.702;10.208;2022-07-26T09:20:04;1.73;;;1.07;;
64894;SDS011;51588;53.702;10.208;2022-07-26T09:22:33;1.63;;;1.13;;
64894;SDS011;51588;53.702;10.208;2022-07-26T09:24:59;1.67;;;1.10;;
64894;SDS011;51588;53.702;10.208;2022-07-26T09:27:32;2.20;;;1.10;;
64894;SDS011;51588;53.702;10.208;2022-07-26T09:30:03;1.50;;;1.20;;
64894;SDS011;51588;53.702;10.208;2022-07-26T09:32:30;1.90;;;1.20;;
64894;SDS011;51588;53.702;10.208;2022-07-26T09:35:07;1.43;;;1.17;;
64894;SDS011;51588;53.702;10.208;2022-07-26T09:37:36;1.30;;;1.10;;
64894;SDS011;51588;53.702;10.208;2022-07-26T09:40:04;1.10;;;1.00;;
64894;SDS011;51588;53.702;10.208;2022-07-26T09:42:31;3.30;;;1.10;;
64894;SDS011;51588;53.702;10.208;2022-07-26T09:44:57;2.13;;;1.27;;
64894;SDS011;51588;53.702;10.208;2022-07-26T09:47:33;2.17;;;1.10;;
64894;SDS011;51588;53.702;10.208;2022-07-26T09:50:13;1.90;;;1.10;;
64894;SDS011;51588;53.702;10.208;2022-07-26T09:55:33;1.67;;;1.00;;
64894;SDS011;51588;53.702;10.208;2022-07-26T09:58:00;1.40;;;1.20;;
64894;SDS011;51588;53.702;10.208;2022-07-26T10:00:30;1.57;;;1.10;;
64894;SDS011;51588;53.702;10.208;2022-07-26T10:02:57;1.57;;;1.13;;
64894;SDS011;51588;53.702;10.208;2022-07-26T10:05:23;1.17;;;1.00;;
64894;SDS011;51588;53.702;10.208;2022-07-26T10:07:50;2.43;;;1.40;;
64894;SDS011;51588;53.702;10.208;2022-07-26T10:10:17;1.10;;;1.00;;
64894;SDS011;51588;53.702;10.208;2022-07-26T10:12:46;1.40;;;1.00;;
64894;SDS011;51588;53.702;10.208;2022-07-26T10:17:56;1.20;;;1.07;;
64894;SDS011;51588;53.702;10.208;2022-07-26T10:25:52;2.23;;;1.60;;
64894;SDS011;51588;53.702;10.208;2022-07-26T10:28:23;1.50;;;1.30;;
64894;SDS011;51588;53.702;10.208;2022-07-26T10:30:50;1.93;;;1.00;;
64894;SDS011;51588;53.702;10.208;2022-07-26T10:33:17;2.33;;;1.20;;
64894;SDS011;51588;53.702;10.208;2022-07-26T10:35:44;1.63;;;1.00;;
64894;SDS011;51588;53.702;10.208;2022-07-26T10:38:12;1.43;;;1.00;;
64894;SDS011;51588;53.702;10.208;2022-07-26T10:40:39;1.30;;;1.00;;
64894;SDS011;51588;53.702;10.208;2022-07-26T10:43:20;1.57;;;1.00;;
64894;SDS011;51588;53.702;10.208;2022-07-26T10:45:48;2.10;;;1.07;;
64894;SDS011;51588;53.702;10.208;2022-07-26T10:48:19;1.50;;;1.13;;
64894;SDS011;51588;53.702;10.208;2022-07-26T10:50:47;1.57;;;1.00;;
64894;SDS011;51588;53.702;10.208;2022-07-26T10:53:17;2.13;;;1.10;;
64894;SDS011;51588;53.702;10.208;2022-07-26T10:55:44;1.30;;;1.00;;
64894;SDS011;51588;53.702;10.208;2022-07-26T10:58:11;1.27;;;1.00;;
64894;SDS011;51588;53.702;10.208;2022-07-26T11:00:37;1.50;;;1.10;;
64894;SDS011;51588;53.702;10.208;2022-07-26T11:03:05;1.47;;;1.00;;
64894;SDS011;51588;53.702;10.208;2022-07-26T11:05:31;3.13;;;1.10;;
64894;SDS011;51588;53.702;10.208;2022-07-26T11:07:59;1.40;;;1.00;;
64894;SDS011;51588;53.702;10.208;2022-07-26T11:10:29;1.43;;;1.10;;
64894;SDS011;51588;53.702;10.208;2022-07-26T11:12:57;1.87;;;1.27;;
64894;SDS011;51588;53.702;10.208;2022-07-26T11:15:23;1.40;;;1.00;;
64894;SDS011;51588;53.702;10.208;2022-07-26T11:17:49;1.40;;;1.10;;
64894;SDS011;51588;53.702;10.208;2022-07-26T11:20:24;1.93;;;1.20;;
64894;SDS011;51588;53.702;10.208;2022-07-26T11:22:50;2.53;;;1.13;;
64894;SDS011;51588;53.702;10.208;2022-07-26T11:25:19;1.47;;;1.07;;
64894;SDS011;51588;53.702;10.208;2022-07-26T11:27:57;1.67;;;0.93;;
64894;SDS011;51588;53.702;10.208;2022-07-26T11:30:23;1.50;;;0.90;;
64894;SDS011;51588;53.702;10.208;2022-07-26T11:32:50;1.67;;;1.20;;
64894;SDS011;51588;53.702;10.208;2022-07-26T11:35:17;3.00;;;1.20;;
64894;SDS011;51588;53.702;10.208;2022-07-26T11:37:51;2.33;;;1.10;;
64894;SDS011;51588;53.702;10.208;2022-07-26T11:40:18;2.27;;;1.27;;
64894;SDS011;51588;53.702;10.208;2022-07-26T11:42:44;2.13;;;1.20;;
64894;SDS011;51588;53.702;10.208;2022-07-26T11:45:11;1.37;;;1.00;;
64894;SDS011;51588;53.702;10.208;2022-07-26T11:47:38;2.23;;;1.10;;
64894;SDS011;51588;53.702;10.208;2022-07-26T11:50:04;2.30;;;1.10;;
64894;SDS011;51588;53.702;10.208;2022-07-26T11:52:31;3.47;;;1.23;;
64894;SDS011;51588;53.702;10.208;2022-07-26T11:54:58;1.23;;;1.00;;
64894;SDS011;51588;53.702;10.208;2022-07-26T11:57:26;3.10;;;1.60;;
64894;SDS011;51588;53.702;10.208;2022-07-26T11:59:53;1.80;;;1.20;;
64894;SDS011;51588;53.702;10.208;2022-07-26T12:02:20;1.50;;;1.27;;
64894;SDS011;51588;53.702;10.208;2022-07-26T12:04:47;2.53;;;1.30;;
64894;SDS011;51588;53.702;10.208;2022-07-26T12:07:14;1.67;;;1.00;;
64894;SDS011;51588;53.702;10.208;2022-07-26T12:09:42;3.00;;;1.30;;
64894;SDS011;51588;53.702;10.208;2022-07-26T12:12:19;1.87;;;1.20;;
64894;SDS011;51588;53.702;10.208;2022-07-26T12:14:54;1.90;;;1.20;;
64894;SDS011;51588;53.702;10.208;2022-07-26T12:17:21;1.53;;;0.90;;
64894;SDS011;51588;53.702;10.208;2022-07-26T12:19:47;2.23;;;1.00;;
64894;SDS011;51588;53.702;10.208;2022-07-26T12:22:14;3.30;;;1.73;;
64894;SDS011;51588;53.702;10.208;2022-07-26T12:24:42;2.33;;;1.30;;
64894;SDS011;51588;53.702;10.208;2022-07-26T12:27:10;2.23;;;1.53;;
64894;SDS011;51588;53.702;10.208;2022-07-26T12:29:38;2.30;;;1.30;;
64894;SDS011;51588;53.702;10.208;2022-07-26T12:32:06;1.53;;;1.07;;
64894;SDS011;51588;53.702;10.208;2022-07-26T12:34:32;2.37;;;1.20;;
64894;SDS011;51588;53.702;10.208;2022-07-26T12:39:40;2.50;;;1.27;;
64894;SDS011;51588;53.702;10.208;2022-07-26T12:42:19;2.07;;;1.40;;
64894;SDS011;51588;53.702;10.208;2022-07-26T12:44:47;2.67;;;1.37;;
64894;SDS011;51588;53.702;10.208;2022-07-26T12:47:13;3.10;;;1.70;;
64894;SDS011;51588;53.702;10.208;2022-07-26T12:49:40;2.90;;;1.30;;
64894;SDS011;51588;53.702;10.208;2022-07-26T12:52:06;1.60;;;1.10;;
64894;SDS011;51588;53.702;10.208;2022-07-26T12:54:32;1.97;;;1.30;;
64894;SDS011;51588;53.702;10.208;2022-07-26T12:56:59;1.77;;;1.27;;
64894;SDS011;51588;53.702;10.208;2022-07-26T12:59:25;2.40;;;1.13;;
64894;SDS011;51588;53.702;10.208;2022-07-26T13:01:53;2.77;;;1.20;;
64894;SDS011;51588;53.702;10.208;2022-07-26T13:04:19;3.10;;;1.30;;
64894;SDS011;51588;53.702;10.208;2022-07-26T13:06:46;2.53;;;1.30;;
64894;SDS011;51588;53.702;10.208;2022-07-26T13:09:12;1.70;;;1.20;;
64894;SDS011;51588;53.702;10.208;2022-07-26T13:11:38;1.70;;;1.10;;
64894;SDS011;51588;53.702;10.208;2022-07-26T13:14:05;2.40;;;1.53;;
64894;SDS011;51588;53.702;10.208;2022-07-26T13:16:31;1.30;;;1.20;;
64894;SDS011;51588;53.702;10.208;2022-07-26T13:18:59;2.67;;;1.37;;
64894;SDS011;51588;53.702;10.208;2022-07-26T13:21:25;1.90;;;1.20;;
64894;SDS011;51588;53.702;10.208;2022-07-26T13:23:51;2.70;;;1.30;;
64894;SDS011;51588;53.702;10.208;2022-07-26T13:26:18;2.87;;;1.37;;
64894;SDS011;51588;53.702;10.208;2022-07-26T13:28:44;1.40;;;1.00;;
64894;SDS011;51588;53.702;10.208;2022-07-26T13:31:11;1.97;;;1.23;;
64894;SDS011;51588;53.702;10.208;2022-07-26T13:33:37;3.87;;;1.30;;
64894;SDS011;51588;53.702;10.208;2022-07-26T13:36:05;2.10;;;1.17;;
64894;SDS011;51588;53.702;10.208;2022-07-26T13:38:31;2.23;;;1.20;;
64894;SDS011;51588;53.702;10.208;2022-07-26T13:40:58;2.50;;;1.27;;
64894;SDS011;51588;53.702;10.208;2022-07-26T13:43:26;1.57;;;1.13;;
64894;SDS011;51588;53.702;10.208;2022-07-26T13:45:52;2.30;;;1.40;;
64894;SDS011;51588;53.702;10.208;2022-07-26T13:48:19;2.50;;;1.10;;
64894;SDS011;51588;53.702;10.208;2022-07-26T13:50:45;3.07;;;1.20;;
64894;SDS011;51588;53.702;10.208;2022-07-26T13:53:13;1.60;;;1.10;;
64894;SDS011;51588;53.702;10.208;2022-07-26T13:55:39;2.77;;;1.23;;
64894;SDS011;51588;53.702;10.208;2022-07-26T13:58:05;1.60;;;1.03;;
64894;SDS011;51588;53.702;10.208;2022-07-26T14:00:32;2.47;;;1.20;;
64894;SDS011;51588;53.702;10.208;2022-07-26T14:02:58;2.23;;;1.17;;
64894;SDS011;51588;53.702;10.208;2022-07-26T14:05:25;3.07;;;1.30;;
64894;SDS011;51588;53.702;10.208;2022-07-26T14:07:52;1.30;;;1.00;;
64894;SDS011;51588;53.702;10.208;2022-07-26T14:10:20;2.53;;;1.33;;
64894;SDS011;51588;53.702;10.208;2022-07-26T14:12:47;3.70;;;1.30;;
64894;SDS011;51588;53.702;10.208;2022-07-26T14:15:14;1.73;;;1.20;;
64894;SDS011;51588;53.702;10.208;2022-07-26T14:17:40;1.90;;;0.90;;
64894;SDS011;51588;53.702;10.208;2022-07-26T14:20:09;3.00;;;1.10;;
64894;SDS011;51588;53.702;10.208;2022-07-26T14:22:35;2.13;;;1.40;;
64894;SDS011;51588;53.702;10.208;2022-07-26T14:25:01;3.57;;;1.67;;
64894;SDS011;51588;53.702;10.208;2022-07-26T14:27:30;3.33;;;1.20;;
64894;SDS011;51588;53.702;10.208;2022-07-26T14:29:56;2.33;;;1.20;;
64894;SDS011;51588;53.702;10.208;2022-07-26T14:32:22;1.87;;;1.00;;
64894;SDS011;51588;53.702;10.208;2022-07-26T14:34:49;2.70;;;1.37;;
64894;SDS011;51588;53.702;10.208;2022-07-26T14:37:15;1.90;;;1.13;;
64894;SDS011;51588;53.702;10.208;2022-07-26T14:39:41;2.80;;;1.30;;
64894;SDS011;51588;53.702;10.208;2022-07-26T14:42:08;2.60;;;1.33;;
64894;SDS011;51588;53.702;10.208;2022-07-26T14:44:35;1.50;;;0.93;;
64894;SDS011;51588;53.702;10.208;2022-07-26T14:47:02;2.40;;;1.10;;